createdAt,value
2023-04-15T00:01:41.191Z,9.30
2023-04-15T00:05:41.826Z,9.47
2023-04-15T00:09:45.119Z,8.57
2023-04-15T00:13:45.838Z,9.70
2023-04-15T00:17:46.149Z,9.10
2023-04-15T00:21:46.309Z,8.70
2023-04-15T00:25:49.361Z,8.73
2023-04-15T00:29:49.519Z,8.30
2023-04-15T00:33:49.753Z,8.20
2023-04-15T00:37:49.969Z,8.33
2023-04-15T00:41:53.189Z,8.17
2023-04-15T00:45:57.582Z,7.93
2023-04-15T00:49:58.263Z,7.80
2023-04-15T00:53:58.506Z,7.17
2023-04-15T00:58:02.890Z,7.50
2023-04-15T01:02:03.588Z,7.73
2023-04-15T01:06:04.376Z,7.07
2023-04-15T01:10:07.076Z,7.30
2023-04-15T01:14:12.141Z,6.83
2023-04-15T01:18:12.805Z,7.40
2023-04-15T01:22:13.753Z,6.93
2023-04-15T01:26:17.010Z,7.03
2023-04-15T01:30:19.397Z,6.83
2023-04-15T01:34:20.350Z,7.00
2023-04-15T01:38:20.744Z,6.37
2023-04-15T01:42:24.883Z,6.17
2023-04-15T01:46:26.001Z,6.67
2023-04-15T01:50:27.370Z,6.03
2023-04-15T01:54:29.063Z,6.37
2023-04-15T01:58:31.962Z,5.80
2023-04-15T02:02:32.482Z,5.97
2023-04-15T02:06:32.985Z,6.00
2023-04-15T02:10:33.372Z,5.97
2023-04-15T02:14:36.193Z,6.00
2023-04-15T02:18:36.685Z,6.20
2023-04-15T02:22:37.072Z,6.00
2023-04-15T02:26:37.289Z,6.10
2023-04-15T02:30:41.067Z,6.37
2023-04-15T02:34:42.880Z,6.23
2023-04-15T02:38:43.786Z,6.33
2023-04-15T02:42:45.782Z,5.80
2023-04-15T02:46:53.136Z,5.93
2023-04-15T02:50:54.817Z,6.33
2023-04-15T02:54:57.854Z,6.00
2023-04-15T02:58:58.731Z,6.30
2023-04-15T03:03:07.603Z,6.13
2023-04-15T03:07:08.000Z,6.50
2023-04-15T03:11:08.809Z,6.30
2023-04-15T03:15:12.876Z,6.80
2023-04-15T03:19:20.745Z,6.43
2023-04-15T03:23:21.355Z,6.57
2023-04-15T03:27:23.513Z,6.60
2023-04-15T03:31:24.170Z,6.87
2023-04-15T03:35:27.192Z,6.90
2023-04-15T03:39:27.436Z,7.40
2023-04-15T03:43:27.832Z,7.60
2023-04-15T03:47:28.293Z,7.10
2023-04-15T03:51:31.572Z,7.17
2023-04-15T03:55:31.847Z,7.10
2023-04-15T03:59:31.981Z,8.13
2023-04-15T04:03:32.390Z,7.63
2023-04-15T04:07:35.434Z,7.70
2023-04-15T04:11:35.960Z,8.37
2023-04-15T04:15:36.869Z,8.77
2023-04-15T04:19:37.356Z,8.33
2023-04-15T04:23:40.773Z,7.83
2023-04-15T04:27:41.768Z,8.70
2023-04-15T04:31:42.170Z,8.40
2023-04-15T04:35:42.323Z,8.70
2023-04-15T04:39:45.179Z,8.77
2023-04-15T04:43:45.356Z,9.00
2023-04-15T04:47:45.554Z,8.53
2023-04-15T04:51:47.375Z,9.80
2023-04-15T04:55:50.441Z,9.00
2023-04-15T04:59:51.313Z,9.67
2023-04-15T05:03:52.255Z,9.13
2023-04-15T05:07:52.692Z,8.53
2023-04-15T05:11:56.864Z,8.27
2023-04-15T05:15:57.162Z,8.90
2023-04-15T05:19:57.429Z,7.83
2023-04-15T05:23:57.597Z,7.97
2023-04-15T05:28:00.730Z,7.97
2023-04-15T05:32:00.920Z,7.93
2023-04-15T05:36:01.468Z,7.80
2023-04-15T05:40:01.702Z,7.37
2023-04-15T05:44:04.621Z,7.10
2023-04-15T05:48:04.785Z,7.33
2023-04-15T05:52:05.260Z,6.87
2023-04-15T05:56:05.506Z,6.50
2023-04-15T06:00:10.824Z,5.63
2023-04-15T06:04:11.722Z,6.30
2023-04-15T06:08:12.675Z,5.80
2023-04-15T06:12:13.376Z,5.73
2023-04-15T06:16:16.198Z,5.53
2023-04-15T06:20:16.625Z,6.80
2023-04-15T06:24:17.131Z,6.67
2023-04-15T06:28:17.315Z,5.47
2023-04-15T06:32:20.319Z,5.40
2023-04-15T06:36:20.847Z,5.83
2023-04-15T06:40:21.378Z,5.57
2023-04-15T06:44:21.786Z,5.83
2023-04-15T06:48:24.566Z,6.30
2023-04-15T06:52:24.777Z,5.47
2023-04-15T06:56:24.916Z,5.87
2023-04-15T07:00:25.677Z,5.27
2023-04-15T07:04:28.615Z,5.47
2023-04-15T07:08:29.012Z,5.30
2023-04-15T07:12:29.900Z,3.87
2023-04-15T07:16:30.102Z,4.37
2023-04-15T07:20:33.172Z,4.70
2023-04-15T07:24:33.405Z,5.17
2023-04-15T07:28:33.613Z,4.90
2023-04-15T07:32:33.832Z,4.90
2023-04-15T07:36:37.033Z,4.87
2023-04-15T07:40:37.222Z,4.90
2023-04-15T07:44:37.431Z,5.00
2023-04-15T07:48:37.845Z,5.30
2023-04-15T07:52:42.233Z,4.40
2023-04-15T07:56:42.410Z,4.70
2023-04-15T08:00:43.597Z,3.53
2023-04-15T08:04:44.467Z,3.67
2023-04-15T08:08:47.826Z,3.37
2023-04-15T08:12:49.310Z,3.20
2023-04-15T08:16:49.460Z,3.27
2023-04-15T08:20:49.808Z,3.37
2023-04-15T08:24:52.653Z,4.87
2023-04-15T08:28:53.100Z,3.63
2023-04-15T08:32:54.330Z,4.70
2023-04-15T08:36:54.672Z,4.90
2023-04-15T08:40:59.197Z,3.37
2023-04-15T08:45:02.214Z,3.20
2023-04-15T08:49:02.648Z,3.70
2023-04-15T08:53:03.464Z,3.37
2023-04-15T08:57:07.215Z,3.10
2023-04-15T09:01:08.063Z,3.27
2023-04-15T09:05:10.636Z,3.10
2023-04-15T09:09:10.907Z,2.87
2023-04-15T09:13:13.755Z,3.77
2023-04-15T09:17:14.833Z,3.80
2023-04-15T09:21:18.450Z,4.43
2023-04-15T09:25:34.955Z,4.13
2023-04-15T09:29:40.642Z,3.60
2023-04-15T09:34:00.791Z,2.83
2023-04-15T09:38:12.321Z,3.03
2023-04-15T09:42:14.193Z,2.70
2023-04-15T09:46:19.141Z,2.30
2023-04-15T09:50:21.618Z,2.50
2023-04-15T09:54:24.647Z,1.97
2023-04-15T09:58:28.670Z,1.80
2023-04-15T10:02:34.416Z,1.80
2023-04-15T10:06:38.728Z,1.93
2023-04-15T10:10:39.378Z,1.50
2023-04-15T10:14:43.248Z,1.70
2023-04-15T10:18:48.620Z,1.40
2023-04-15T10:22:49.860Z,2.00
2023-04-15T10:26:50.783Z,2.00
2023-04-15T10:30:57.038Z,1.80
2023-04-15T10:35:05.161Z,1.53
2023-04-15T10:39:06.820Z,1.80
2023-04-15T10:43:10.450Z,2.20
2023-04-15T10:47:15.633Z,2.30
2023-04-15T10:51:19.162Z,1.63
2023-04-15T10:55:24.823Z,1.40
2023-04-15T10:59:25.499Z,1.70
2023-04-15T11:03:41.927Z,1.60
2023-04-15T11:07:53.278Z,2.00
2023-04-15T11:12:10.761Z,2.00
2023-04-15T11:16:10.971Z,2.37
2023-04-15T11:20:12.656Z,3.07
2023-04-15T11:24:26.606Z,2.00
2023-04-15T11:28:30.563Z,2.67
2023-04-15T11:32:30.723Z,3.80
2023-04-15T11:36:33.249Z,2.00
2023-04-15T11:40:36.372Z,2.87
2023-04-15T11:44:36.465Z,2.50
2023-04-15T11:48:39.582Z,2.37
2023-04-15T11:52:39.848Z,2.63
2023-04-15T11:56:42.572Z,2.33
2023-04-15T12:00:43.922Z,2.03
2023-04-15T12:04:44.219Z,2.10
2023-04-15T12:09:07.335Z,2.10
2023-04-15T12:13:13.343Z,2.60
2023-04-15T12:17:14.405Z,2.00
2023-04-15T12:21:15.674Z,1.97
2023-04-15T12:25:16.215Z,2.20
2023-04-15T12:29:20.321Z,2.37
2023-04-15T12:33:20.618Z,2.10
2023-04-15T12:37:21.729Z,2.10
2023-04-15T12:41:24.567Z,2.40
2023-04-15T12:45:29.428Z,2.20
2023-04-15T12:49:30.710Z,2.30
2023-04-15T12:53:31.548Z,2.60
2023-04-15T12:57:31.806Z,2.47
2023-04-15T13:01:34.819Z,1.97
2023-04-15T13:05:37.151Z,2.60
2023-04-15T13:09:37.980Z,2.40
2023-04-15T13:13:38.334Z,2.20
2023-04-15T13:17:42.007Z,2.10
2023-04-15T13:21:42.568Z,1.90
2023-04-15T13:25:42.752Z,2.20
2023-04-15T13:29:43.158Z,2.30
2023-04-15T13:33:46.272Z,2.30
2023-04-15T13:37:46.713Z,2.30
2023-04-15T13:41:48.707Z,3.10
2023-04-15T13:45:51.091Z,2.43
2023-04-15T13:49:56.350Z,2.80
2023-04-15T13:53:58.286Z,2.77
2023-04-15T13:57:59.453Z,3.10
2023-04-15T14:01:59.862Z,2.43
2023-04-15T14:06:02.856Z,2.80
2023-04-15T14:10:04.489Z,2.90
2023-04-15T14:14:05.402Z,3.03
2023-04-15T14:18:06.034Z,2.73
2023-04-15T14:22:09.156Z,2.33
2023-04-15T14:26:09.399Z,2.20
2023-04-15T14:30:13.062Z,2.63
2023-04-15T14:34:13.795Z,2.50
2023-04-15T14:38:16.673Z,3.30
2023-04-15T14:42:17.073Z,4.40
2023-04-15T14:46:17.404Z,3.40
2023-04-15T14:50:17.833Z,3.30
2023-04-15T14:54:22.361Z,3.67
2023-04-15T14:58:23.014Z,3.57
2023-04-15T15:02:37.226Z,3.40
2023-04-15T15:06:39.892Z,3.80
2023-04-15T15:10:49.396Z,3.20
2023-04-15T15:14:50.184Z,3.60
2023-04-15T15:18:51.286Z,3.37
2023-04-15T15:22:51.570Z,3.50
2023-04-15T15:26:55.291Z,5.03
2023-04-15T15:30:55.728Z,3.90
2023-04-15T15:34:56.042Z,3.40
2023-04-15T15:38:56.387Z,3.30
2023-04-15T15:42:59.116Z,3.80
2023-04-15T15:46:59.706Z,3.80
2023-04-15T15:51:00.003Z,4.23
2023-04-15T15:55:00.667Z,4.87
2023-04-15T15:59:04.817Z,3.47
2023-04-15T16:03:07.113Z,4.80
2023-04-15T16:07:09.317Z,5.03
2023-04-15T16:11:10.077Z,3.47
2023-04-15T16:15:15.223Z,3.77
2023-04-15T16:19:15.494Z,3.63
2023-04-15T16:23:20.021Z,4.30
2023-04-15T16:27:21.596Z,4.90
2023-04-15T16:31:24.848Z,5.67
2023-04-15T16:35:25.087Z,4.57
2023-04-15T16:39:25.424Z,5.50
2023-04-15T16:43:28.007Z,5.57
2023-04-15T16:47:31.169Z,4.90
2023-04-15T16:51:33.370Z,6.00
2023-04-15T16:55:34.009Z,4.97
2023-04-15T16:59:34.237Z,8.80
2023-04-15T17:03:37.158Z,5.40
2023-04-15T17:07:37.540Z,6.63
2023-04-15T17:11:38.968Z,4.20
2023-04-15T17:15:39.172Z,6.23
2023-04-15T17:19:41.889Z,7.13
2023-04-15T17:23:42.083Z,3.70
2023-04-15T17:27:42.244Z,7.10
2023-04-15T17:31:42.748Z,9.20
2023-04-15T17:35:45.679Z,8.63
2023-04-15T17:39:46.591Z,7.67
2023-04-15T17:43:46.756Z,7.13
2023-04-15T17:47:46.969Z,6.83
2023-04-15T17:51:49.685Z,4.63
2023-04-15T17:55:50.530Z,4.70
2023-04-15T17:59:51.433Z,5.50
2023-04-15T18:03:54.043Z,5.23
2023-04-15T18:07:57.302Z,6.10
2023-04-15T18:11:57.482Z,5.27
2023-04-15T18:15:58.993Z,6.90
2023-04-15T18:19:59.852Z,7.30
2023-04-15T18:24:04.481Z,7.33
2023-04-15T18:28:06.103Z,5.73
2023-04-15T18:32:06.667Z,5.97
2023-04-15T18:36:07.354Z,5.37
2023-04-15T18:40:12.529Z,6.50
2023-04-15T18:44:13.212Z,5.50
2023-04-15T18:48:14.522Z,6.13
2023-04-15T18:52:17.596Z,6.80
2023-04-15T18:56:20.666Z,7.73
2023-04-15T19:00:21.133Z,6.80
2023-04-15T19:04:21.524Z,7.70
2023-04-15T19:08:21.730Z,6.30
2023-04-15T19:12:25.942Z,7.30
2023-04-15T19:16:26.091Z,6.20
2023-04-15T19:20:26.541Z,5.50
2023-04-15T19:24:26.795Z,6.07
2023-04-15T19:28:30.332Z,6.43
2023-04-15T19:32:30.656Z,6.60
2023-04-15T19:36:31.986Z,5.73
2023-04-15T19:40:35.258Z,7.77
2023-04-15T19:44:42.905Z,5.90
2023-04-15T19:48:43.139Z,5.50
2023-04-15T19:52:43.349Z,5.80
2023-04-15T19:56:43.488Z,7.50
2023-04-15T20:00:46.371Z,4.50
2023-04-15T20:04:46.628Z,4.80
2023-04-15T20:08:46.834Z,5.00
2023-04-15T20:12:51.075Z,4.93
2023-04-15T20:16:55.256Z,5.53
2023-04-15T20:20:55.730Z,4.00
2023-04-15T20:24:55.989Z,4.80
2023-04-15T20:28:57.168Z,4.80
2023-04-15T20:33:00.764Z,4.60
2023-04-15T20:37:01.919Z,4.37
2023-04-15T20:41:02.246Z,7.00
2023-04-15T20:45:02.728Z,6.70
2023-04-15T20:49:06.751Z,6.00
2023-04-15T20:53:07.683Z,6.53
2023-04-15T20:57:07.780Z,6.37
2023-04-15T21:01:08.058Z,5.30
2023-04-15T21:05:12.101Z,4.73
2023-04-15T21:09:12.321Z,5.10
2023-04-15T21:13:15.346Z,4.83
2023-04-15T21:17:15.740Z,4.63
2023-04-15T21:21:19.831Z,4.43
2023-04-15T21:25:20.400Z,4.77
2023-04-15T21:29:20.653Z,4.37
2023-04-15T21:33:22.441Z,4.50
2023-04-15T21:37:25.313Z,4.73
2023-04-15T21:41:25.474Z,4.87
2023-04-15T21:45:25.881Z,4.70
2023-04-15T21:49:26.032Z,4.63
2023-04-15T21:53:28.810Z,5.67
2023-04-15T21:57:29.888Z,5.60
2023-04-15T22:01:30.599Z,5.40
2023-04-15T22:05:30.925Z,5.70
2023-04-15T22:09:33.639Z,5.80
2023-04-15T22:13:33.790Z,5.10
2023-04-15T22:17:34.364Z,4.90
2023-04-15T22:21:34.631Z,5.57
2023-04-15T22:25:37.462Z,5.13
2023-04-15T22:29:38.398Z,5.17
2023-04-15T22:33:39.047Z,5.00
2023-04-15T22:37:39.331Z,4.87
2023-04-15T22:41:42.250Z,4.93
2023-04-15T22:45:42.670Z,5.10
2023-04-15T22:49:42.893Z,5.10
2023-04-15T22:53:43.305Z,5.60
2023-04-15T22:57:46.123Z,5.23
2023-04-15T23:01:46.320Z,4.90
2023-04-15T23:05:46.467Z,5.50
2023-04-15T23:09:46.675Z,5.23
2023-04-15T23:13:50.771Z,4.90
2023-04-15T23:17:51.076Z,4.47
2023-04-15T23:21:51.755Z,4.87
2023-04-15T23:25:52.119Z,4.43
2023-04-15T23:29:54.939Z,4.57
2023-04-15T23:33:55.122Z,4.87
2023-04-15T23:37:55.351Z,5.23
2023-04-15T23:41:56.477Z,5.30
2023-04-15T23:45:59.631Z,6.13
2023-04-15T23:49:59.780Z,5.40
2023-04-15T23:53:59.936Z,4.97
2023-04-15T23:58:00.202Z,4.77
